Big Bear Station Historical Data
Daily Summary for April 20, 2019 Units:  Metric    English   Both
Next Day »
Daily Weekly Monthly Yearly Custom
  High: Low: Average:
Temperature: 17.2 °C 3.1 °C 9.2 °C
Dew Point: 1.4 °C -10 °C -2.9 °C
Humidity: 71% 18% 45%
Wind Speed: 14.3km/h 0km/h 3.4km/h
Wind Gust: -1607.7km/h - -
Wind- - West
Pressure: 794 hPa 792 hPa -
Precipitation: 0 mm    
Historical Graphs
 
 
Tabular Data for April 20, 2019
Time Temperature Dew Point Pressure Wind Wind Speed Wind Gust Humidity Rainfall Rate (Hourly)
00:04 8.2 °C -0.8 °C 794 hPa Calm   -1607.7 km/h 53% 0 mm
00:19 8.4 °C -1.2 °C 793.7 hPa Calm   -1607.7 km/h 51% 0 mm
00:34 8.2 °C -1.1 °C 793.7 hPa Calm   -1607.7 km/h 52% 0 mm
00:49 8.1 °C -1.4 °C 793.7 hPa Calm   -1607.7 km/h 51% 0 mm
01:04 7.9 °C -1.6 °C 793.3 hPa Calm   -1607.7 km/h 51% 0 mm
01:20 7.7 °C -1.5 °C 793.3 hPa Calm   -1607.7 km/h 52% 0 mm
01:35 7.6 °C -1.4 °C 793 hPa Calm   -1607.7 km/h 53% 0 mm
01:50 7.5 °C -1.2 °C 793 hPa Calm   -1607.7 km/h 54% 0 mm
02:05 7.7 °C -1.3 °C 792.7 hPa Calm   -1607.7 km/h 53% 0 mm
02:20 7.9 °C -1.6 °C 792.7 hPa NNW 1.8 km/h -1607.7 km/h 51% 0 mm
02:36 7.8 °C 0.7 °C 792.7 hPa NNW 7.6 km/h -1607.7 km/h 61% 0 mm
02:51 7.6 °C -0.6 °C 792.7 hPa Calm   -1607.7 km/h 56% 0 mm
03:06 7.2 °C -2 °C 792.3 hPa Calm   -1607.7 km/h 52% 0 mm
03:21 7.2 °C -1.5 °C 792.3 hPa NNE 4.3 km/h -1607.7 km/h 54% 0 mm
03:37 7.1 °C -2.1 °C 792.3 hPa Calm   -1607.7 km/h 52% 0 mm
03:52 7.1 °C -2.9 °C 792.3 hPa Calm   -1607.7 km/h 49% 0 mm
04:07 6.6 °C -2.1 °C 792.3 hPa Calm   -1607.7 km/h 54% 0 mm
04:22 6.2 °C -2.4 °C 792 hPa Calm   -1607.7 km/h 54% 0 mm
04:37 5.5 °C -2.8 °C 792 hPa Calm   -1607.7 km/h 55% 0 mm
04:53 5.3 °C -3.6 °C 792 hPa Calm   -1607.7 km/h 53% 0 mm
05:08 5.2 °C -3.6 °C 792 hPa Calm   -1607.7 km/h 53% 0 mm
05:23 4.7 °C -3.6 °C 792 hPa Calm   -1607.7 km/h 55% 0 mm
05:38 4.3 °C -3.5 °C 792 hPa Calm   -1607.7 km/h 57% 0 mm
05:53 4.2 °C -3.3 °C 792.3 hPa Calm   -1607.7 km/h 58% 0 mm
06:09 3.7 °C -4 °C 792.3 hPa Calm   -1607.7 km/h 57% 0 mm
06:24 3.4 °C -5.8 °C 792.3 hPa Calm   -1607.7 km/h 51% 0 mm
06:39 3.1 °C -6.3 °C 792.3 hPa Calm   -1607.7 km/h 50% 0 mm
06:54 3.2 °C -6.2 °C 792.3 hPa Calm   -1607.7 km/h 50% 0 mm
07:10 3.2 °C -4.5 °C 792.3 hPa Calm   -1607.7 km/h 57% 0 mm
07:25 3.6 °C -2.8 °C 792.7 hPa Calm   -1607.7 km/h 63% 0 mm
07:40 5.1 °C -4.4 °C 792.3 hPa Calm   -1607.7 km/h 50% 0 mm
07:55 5.7 °C -6.2 °C 792.3 hPa Calm   -1607.7 km/h 42% 0 mm
08:10 7.9 °C -10 °C 792.7 hPa NW 6 km/h -1607.7 km/h 27% 0 mm
08:26 8.7 °C -7.1 °C 792.7 hPa ESE 5.1 km/h -1607.7 km/h 32% 0 mm
08:41 9.4 °C -6.5 °C 792.7 hPa North 2.7 km/h -1607.7 km/h 32% 0 mm
08:56 9.8 °C -6.2 °C 792.7 hPa NNW 6 km/h -1607.7 km/h 32% 0 mm
09:11 11 °C -8.8 °C 792.7 hPa South 2.7 km/h -1607.7 km/h 24% 0 mm
09:26 11.3 °C -5.3 °C 793 hPa NNW 6 km/h -1607.7 km/h 31% 0 mm
09:42 11.3 °C -4.4 °C 793 hPa NW 6.8 km/h -1607.7 km/h 33% 0 mm
09:57 11.3 °C -2.6 °C 793 hPa NW 8.5 km/h -1607.7 km/h 38% 0 mm
10:12 11.6 °C -3.3 °C 793 hPa NNW 6 km/h -1607.7 km/h 35% 0 mm
10:27 12.6 °C -3.3 °C 793 hPa NW 6.8 km/h -1607.7 km/h 33% 0 mm
10:42 13.5 °C -1.3 °C 793 hPa NNE 6 km/h -1607.7 km/h 36% 0 mm
10:58 14.7 °C -1.8 °C 793 hPa Calm   -1607.7 km/h 32% 0 mm
11:13 15.2 °C -2.7 °C 793 hPa NNW 8.5 km/h -1607.7 km/h 29% 0 mm
11:29 14.8 °C -2.7 °C 793 hPa NNE 5.1 km/h -1607.7 km/h 30% 0 mm
11:44 15 °C -3.4 °C 793.3 hPa NW 8.5 km/h -1607.7 km/h 28% 0 mm
12:00 15.9 °C -5.2 °C 793 hPa NNE 5.1 km/h -1607.7 km/h 23% 0 mm
12:15 15.9 °C -5.2 °C 793 hPa NNW 6 km/h -1607.7 km/h 23% 0 mm
12:30 16 °C -7 °C 793 hPa WNW 1.8 km/h -1607.7 km/h 20% 0 mm
12:45 16.8 °C -7.7 °C 793 hPa ENE 6.8 km/h -1607.7 km/h 18% 0 mm
13:01 16.3 °C -6.7 °C 793.3 hPa NW 7.6 km/h -1607.7 km/h 20% 0 mm
13:17 16 °C -4.1 °C 793.3 hPa North 6.8 km/h -1607.7 km/h 25% 0 mm
13:32 16.5 °C -2.1 °C 793 hPa NW 9.3 km/h -1607.7 km/h 28% 0 mm
13:47 17.2 °C -2.4 °C 793.3 hPa NNW 8.5 km/h -1607.7 km/h 26% 0 mm
14:02 16.9 °C -5 °C 793.3 hPa NW 7.6 km/h -1607.7 km/h 22% 0 mm
14:18 15.8 °C -1.8 °C 793 hPa North 10.1 km/h -1607.7 km/h 30% 0 mm
14:33 16.2 °C -4.4 °C 793 hPa NW 8.5 km/h -1607.7 km/h 24% 0 mm
14:48 15.1 °C 0.1 °C 793 hPa NW 6 km/h -1607.7 km/h 36% 0 mm
15:03 15.5 °C -3.4 °C 792.7 hPa NNW 11.7 km/h -1607.7 km/h 27% 0 mm
15:18 15.2 °C -4.2 °C 792.7 hPa NW 8.5 km/h -1607.7 km/h 26% 0 mm
15:34 14.7 °C -2.2 °C 792.7 hPa WNW 3.5 km/h -1607.7 km/h 31% 0 mm
15:49 14.9 °C -2.6 °C 792.3 hPa NW 5.1 km/h -1607.7 km/h 30% 0 mm
16:04 15 °C -2 °C 792.3 hPa West 2.7 km/h -1607.7 km/h 31% 0 mm
16:19 14 °C 0.3 °C 792.3 hPa WNW 7.6 km/h -1607.7 km/h 39% 0 mm
16:34 14.5 °C -1.6 °C 792.3 hPa ENE 6 km/h -1607.7 km/h 33% 0 mm
16:50 12.8 °C -2.3 °C 792.3 hPa North 8.5 km/h -1607.7 km/h 35% 0 mm
17:05 12.8 °C -2.7 °C 792.3 hPa NE 6.8 km/h -1607.7 km/h 34% 0 mm
17:20 13 °C 0.7 °C 792.3 hPa NW 10.9 km/h -1607.7 km/h 43% 0 mm
17:35 12.9 °C 1.2 °C 792.3 hPa NNW 4.3 km/h -1607.7 km/h 45% 0 mm
17:51 13.1 °C 1.4 °C 792.3 hPa Calm   -1607.7 km/h 45% 0 mm
18:06 12.7 °C -1.6 °C 792.3 hPa NW 14.3 km/h -1607.7 km/h 37% 0 mm
18:21 11.7 °C -0.1 °C 792 hPa NW 10.1 km/h -1607.7 km/h 44% 0 mm
18:36 8.5 °C 0.2 °C 792.3 hPa SSE 9.3 km/h -1607.7 km/h 56% 0 mm
18:52 7.5 °C -1.7 °C 792.3 hPa Calm   -1607.7 km/h 52% 0 mm
19:07 6.8 °C -0.9 °C 792.3 hPa WNW 3.5 km/h -1607.7 km/h 58% 0 mm
19:22 5.8 °C -0.3 °C 792 hPa NW 6.8 km/h -1607.7 km/h 65% 0 mm
19:37 5.3 °C 0.1 °C 792 hPa WNW 4.3 km/h -1607.7 km/h 69% 0 mm
19:52 5 °C -1.2 °C 792 hPa NW 4.3 km/h -1607.7 km/h 64% 0 mm
20:08 5 °C -3.3 °C 792 hPa WNW 2.7 km/h -1607.7 km/h 55% 0 mm
20:23 4.8 °C -3.5 °C 792 hPa Calm   -1607.7 km/h 55% 0 mm
20:38 4.7 °C -3.6 °C 792 hPa North 2.7 km/h -1607.7 km/h 55% 0 mm
20:53 4.6 °C -5.2 °C 792 hPa WNW 6 km/h -1607.7 km/h 49% 0 mm
21:09 4.5 °C -5.1 °C 792.3 hPa Calm   -1607.7 km/h 50% 0 mm
21:24 4.1 °C -5.9 °C 792.3 hPa Calm   -1607.7 km/h 48% 0 mm
21:39 3.9 °C -5.1 °C 792.3 hPa SSW 3.5 km/h -1607.7 km/h 52% 0 mm
21:54 4.1 °C -4.6 °C 792.3 hPa Calm   -1607.7 km/h 53% 0 mm
22:09 4.4 °C -3.9 °C 792.7 hPa Calm   -1607.7 km/h 55% 0 mm
22:25 4.7 °C -2.8 °C 792.7 hPa Calm   -1607.7 km/h 58% 0 mm
22:40 4.5 °C -2.6 °C 792.7 hPa Calm   -1607.7 km/h 60% 0 mm
22:55 5 °C -0.2 °C 792.3 hPa Calm   -1607.7 km/h 69% 0 mm
23:10 5 °C 0 °C 792.3 hPa NW 2.7 km/h -1607.7 km/h 70% 0 mm
23:25 4.6 °C -0.2 °C 792.3 hPa Calm   -1607.7 km/h 71% 0 mm
23:41 4.4 °C -0.4 °C 792.3 hPa Calm   -1607.7 km/h 71% 0 mm
23:56 4 °C -0.8 °C 792.7 hPa Calm   -1607.7 km/h 71% 0 mm
Big Bear CA Weather